Time;durP1;ratioP1;P1;durP2;ratioP2;P2;SDS_P1;SDS_P2;PMS_P1;PMS_P2;Temp;Humidity;BMP_temperature;BMP_pressure;BME280_temperature;BME280_humidity;BME280_pressure;Samples;Min_cycle;Max_cycle;Signal;HPM_P1;HPM_P2
2022/12/09 00:00:44;;;;;;;72.70;38.70;;;;;;;0.43;92.03;97828.02;423054;1292;97857;-39
2022/12/09 00:10:55;;;;;;;72.40;39.00;;;;;;;0.02;92.02;97825.49;423122;1285;111609;-39
2022/12/09 00:21:11;;;;;;;61.00;34.80;;;;;;;-0.21;92.23;97826.69;423034;1286;109466;-39
2022/12/09 00:31:23;;;;;;;60.80;35.60;;;;;;;-0.27;92.34;97834.64;423147;1285;97532;-39
2022/12/09 00:41:31;;;;;;;56.90;32.40;;;;;;;-0.27;92.28;97839.64;423064;1292;111142;-40
2022/12/09 00:51:38;;;;;;;60.20;34.20;;;;;;;-0.17;92.46;97846.17;423046;1285;107421;-39
2022/12/09 01:01:45;;;;;;;49.50;30.40;;;;;;;-0.17;92.44;97854.42;423054;1292;97752;-39
2022/12/09 01:11:51;;;;;;;47.10;30.00;;;;;;;-0.22;92.26;97860.74;423077;1286;108302;-39
2022/12/09 01:21:58;;;;;;;61.80;33.70;;;;;;;-0.37;92.33;97861.10;423052;1286;97894;-40
2022/12/09 01:42:17;;;;;;;63.60;33.20;;;;;;;-0.53;92.74;97841.69;423127;1292;110359;-39
2022/12/09 01:52:26;;;;;;;63.80;34.90;;;;;;;-0.40;92.85;97837.20;422953;1292;107431;-39
2022/12/09 02:02:36;;;;;;;55.80;30.60;;;;;;;-0.23;92.93;97841.10;423080;1285;97995;-39
2022/12/09 02:12:48;;;;;;;54.70;31.60;;;;;;;-0.04;93.19;97829.70;422973;1289;109201;-40
2022/12/09 02:22:59;;;;;;;45.90;26.70;;;;;;;0.12;93.00;97817.33;423555;1268;107358;-40
2022/12/09 02:33:08;;;;;;;54.40;27.60;;;;;;;0.17;92.99;97812.75;422094;1293;97781;-40
2022/12/09 02:43:17;;;;;;;;;;;;;;;0.11;93.06;97807.96;421979;1295;383363;-38
2022/12/09 03:03:35;;;;;;;57.20;33.00;;;;;;;0.06;93.23;97810.31;422093;1289;96681;-39
2022/12/09 03:13:43;;;;;;;48.30;31.10;;;;;;;0.14;93.14;97814.84;422214;1286;110106;-40
2022/12/09 03:23:55;;;;;;;48.80;28.00;;;;;;;0.18;93.21;97803.32;422070;1293;106784;-40
2022/12/09 03:34:07;;;;;;;54.30;31.20;;;;;;;0.27;93.28;97796.23;422159;1293;97912;-41
2022/12/09 03:44:16;;;;;;;64.80;34.00;;;;;;;0.33;93.38;97792.04;422213;1296;107568;-40
2022/12/09 03:54:24;;;;;;;73.00;32.70;;;;;;;0.25;93.47;97787.16;422086;1296;97819;-39
2022/12/09 04:04:31;;;;;;;42.00;25.10;;;;;;;0.31;93.55;97786.25;422063;1296;97759;-40
2022/12/09 04:14:39;;;;;;;39.60;25.70;;;;;;;0.46;93.67;97775.79;422028;1294;108267;-39
2022/12/09 04:24:46;;;;;;;40.60;24.20;;;;;;;0.58;93.71;97774.88;422187;1287;97905;-39
2022/12/09 04:34:53;;;;;;;55.40;30.00;;;;;;;0.67;93.70;97773.53;422166;1296;109705;-40
2022/12/09 04:45:00;;;;;;;61.80;32.80;;;;;;;0.69;93.90;97785.19;422227;1292;110450;-40
2022/12/09 04:55:08;;;;;;;56.60;30.70;;;;;;;0.62;93.83;97786.98;422221;1295;97517;-39
2022/12/09 05:05:14;;;;;;;51.30;28.10;;;;;;;0.46;93.78;97788.41;422085;1296;110466;-38
2022/12/09 05:15:21;;;;;;;58.70;34.10;;;;;;;0.41;93.62;97789.14;422110;1289;107437;-39
2022/12/09 05:25:29;;;;;;;46.60;28.60;;;;;;;0.42;93.54;97791.20;422160;1287;97888;-39
2022/12/09 05:35:37;;;;;;;54.70;28.20;;;;;;;0.44;93.55;97794.61;422144;1298;109881;-38
2022/12/09 05:45:57;;;;;;;52.00;30.60;;;;;;;0.19;93.29;97798.00;422286;1296;108073;-38
2022/12/09 05:56:04;;;;;;;57.50;32.10;;;;;;;-0.16;92.93;97799.05;422109;1294;97876;-39
2022/12/09 06:06:14;;;;;;;86.60;46.20;;;;;;;-0.58;93.15;97793.80;422291;1294;109382;-39
2022/12/09 06:16:23;;;;;;;102.00;58.90;;;;;;;-0.80;93.02;97792.18;422597;1295;108067;-39
2022/12/09 06:26:30;;;;;;;144.70;76.90;;;;;;;-0.89;92.96;97790.21;422082;1288;96620;-40
2022/12/09 06:36:37;;;;;;;119.60;63.30;;;;;;;-0.94;93.12;97796.13;422025;1296;108580;-41
2022/12/09 06:46:45;;;;;;;172.50;73.50;;;;;;;-0.87;93.46;97799.83;422076;1287;108312;-39
2022/12/09 07:07:02;;;;;;;143.10;66.90;;;;;;;-1.02;93.47;97813.99;422022;1288;110431;-38
2022/12/09 07:17:17;;;;;;;113.10;59.60;;;;;;;-1.04;93.69;97802.48;422208;1298;106981;-39
2022/12/09 07:27:24;;;;;;;92.90;53.10;;;;;;;-0.79;93.81;97783.73;422191;1289;107510;-40
2022/12/09 07:37:45;;;;;;;83.70;54.30;;;;;;;-0.43;93.96;97774.70;422042;1288;97876;-40
2022/12/09 07:47:52;;;;;;;64.50;42.00;;;;;;;0.02;94.46;97776.83;422067;1295;107114;-39
2022/12/09 07:58:00;;;;;;;72.50;45.00;;;;;;;0.86;94.72;97776.38;421968;1279;97905;-41
2022/12/09 08:08:08;;;;;;;81.40;49.40;;;;;;;1.16;94.38;97783.45;422025;1290;109920;-41
2022/12/09 08:18:16;;;;;;;88.10;49.40;;;;;;;2.37;95.63;97793.02;422108;1280;108489;-40
2022/12/09 08:28:24;;;;;;;81.60;46.00;;;;;;;3.84;95.30;97791.95;422206;1296;97867;-40
2022/12/09 08:48:42;;;;;;;77.80;44.30;;;;;;;4.96;94.00;97806.86;422088;1286;109567;-39
2022/12/09 08:58:51;;;;;;;62.50;36.50;;;;;;;4.88;93.49;97805.84;422131;1288;108324;-37
2022/12/09 09:19:04;;;;;;;46.80;29.00;;;;;;;4.34;92.36;97795.43;422225;1281;110085;-38
2022/12/09 09:29:14;;;;;;;54.30;31.10;;;;;;;4.01;92.03;97781.70;422175;1280;107807;-40
2022/12/09 09:39:22;;;;;;;59.80;31.10;;;;;;;3.60;91.88;97778.19;422155;1291;97845;-39
2022/12/09 09:59:44;;;;;;;35.50;22.90;;;;;;;3.22;91.76;97780.94;422235;1295;106381;-40
2022/12/09 10:09:56;;;;;;;49.60;28.60;;;;;;;3.19;92.13;97768.80;422202;1294;97930;-38
2022/12/09 10:30:15;;;;;;;60.40;35.60;;;;;;;3.19;91.85;97755.02;422203;1293;109856;-39
2022/12/09 11:00:38;;;;;;;32.70;19.80;;;;;;;3.08;91.33;97747.59;422253;1288;97866;-39
2022/12/09 11:10:48;;;;;;;25.30;17.40;;;;;;;3.17;91.19;97738.95;422140;1288;109315;-39
2022/12/09 11:20:54;;;;;;;43.30;23.40;;;;;;;3.34;91.28;97730.32;422168;1288;97517;-38
2022/12/09 11:31:05;;;;;;;39.80;23.80;;;;;;;3.40;91.18;97715.38;422199;1288;97800;-39
2022/12/09 11:52:03;;;;;;;44.50;25.70;;;;;;;3.25;90.46;97707.48;422191;1294;107901;-39
2022/12/09 12:02:21;;;;;;;35.80;22.10;;;;;;;3.22;90.57;97699.98;422284;1286;96838;-40
2022/12/09 12:12:28;;;;;;;;;;;;;;;3.27;90.07;97676.46;422010;1288;97888;-39
2022/12/09 12:33:02;;;;;;;44.70;23.50;;;;;;;3.33;89.86;97673.19;422165;1294;97533;-39
2022/12/09 12:54:00;;;;;;;61.60;36.20;;;;;;;3.03;89.75;97680.61;422166;1294;110482;-40
2022/12/09 13:04:10;;;;;;;83.10;43.20;;;;;;;2.92;89.78;97677.84;422366;1290;107780;-39
2022/12/09 13:14:20;;;;;;;83.70;41.00;;;;;;;2.87;89.65;97665.29;422107;1297;96708;-39
2022/12/09 13:44:39;;;;;;;57.30;31.70;;;;;;;2.65;89.41;97652.21;422218;1288;97174;-39
2022/12/09 13:54:46;;;;;;;57.60;34.90;;;;;;;2.47;89.42;97644.61;422135;1289;110735;-39
2022/12/09 14:04:54;;;;;;;42.30;27.10;;;;;;;2.36;89.19;97635.45;422207;1288;107820;-40
2022/12/09 14:15:05;;;;;;;55.10;29.80;;;;;;;2.31;89.15;97617.59;422270;1292;97867;-39
2022/12/09 14:25:47;;;;;;;79.70;40.00;;;;;;;2.15;89.25;97590.68;422215;1293;110145;-39
2022/12/09 14:35:55;;;;;;;92.00;48.00;;;;;;;1.91;89.27;97601.59;421900;1296;438952;-40
2022/12/09 14:46:02;;;;;;;99.80;52.20;;;;;;;1.73;89.43;97613.88;422192;1288;96688;-38
2022/12/09 14:56:09;;;;;;;63.90;36.60;;;;;;;1.67;89.36;97614.16;422161;1284;97905;-39
2022/12/09 15:06:19;;;;;;;72.40;40.70;;;;;;;1.71;89.39;97604.23;422173;1296;108673;-38
2022/12/09 15:26:34;;;;;;;110.80;54.50;;;;;;;1.58;89.63;97590.27;422280;1298;97739;-39
2022/12/09 15:36:45;;;;;;;65.70;36.80;;;;;;;1.56;89.47;97556.96;422076;1295;110639;-40
2022/12/09 15:46:55;;;;;;;45.30;27.70;;;;;;;1.63;89.49;97553.13;422331;1288;108590;-39
2022/12/09 15:57:06;;;;;;;67.80;35.80;;;;;;;1.70;89.93;97555.55;422213;1294;97485;-40
2022/12/09 16:07:18;;;;;;;58.80;33.30;;;;;;;1.67;89.88;97546.33;422334;1288;109739;-39
2022/12/09 16:17:29;;;;;;;47.50;27.70;;;;;;;1.66;89.79;97540.04;422258;1294;107771;-39
2022/12/09 16:27:43;;;;;;;42.20;25.70;;;;;;;1.71;89.91;97534.09;422114;1287;97861;-40
2022/12/09 16:38:21;;;;;;;62.50;34.80;;;;;;;1.72;89.95;97541.04;422272;1294;109664;-40
2022/12/09 16:48:30;;;;;;;71.30;38.90;;;;;;;1.67;90.12;97531.77;422195;1297;108676;-39
2022/12/09 16:58:37;;;;;;;48.20;27.60;;;;;;;1.66;89.87;97510.40;422241;1290;97866;-39
2022/12/09 17:08:45;;;;;;;43.20;28.20;;;;;;;1.70;89.87;97492.09;422087;1294;110719;-38
2022/12/09 17:18:52;;;;;;;63.30;36.40;;;;;;;1.71;89.98;97487.14;422264;1295;108597;-40
2022/12/09 17:29:00;;;;;;;46.60;25.40;;;;;;;1.55;89.94;97484.34;422151;1297;97582;-38
2022/12/09 17:39:11;;;;;;;42.10;24.80;;;;;;;1.45;89.81;97478.00;422260;1296;110841;-38
2022/12/09 17:49:19;;;;;;;51.20;29.90;;;;;;;1.33;89.95;97478.50;422184;1295;107469;-39
2022/12/09 17:59:26;;;;;;;40.10;22.90;;;;;;;1.13;90.19;97479.23;422138;1293;98061;-39
2022/12/09 18:09:33;;;;;;;34.10;19.20;;;;;;;0.95;90.00;97475.00;422157;1288;109544;-39
2022/12/09 18:19:39;;;;;;;37.50;21.50;;;;;;;0.84;90.24;97468.20;422160;1296;108159;-39
2022/12/09 18:29:45;;;;;;;41.30;25.10;;;;;;;0.81;90.35;97463.77;422233;1287;96673;-40
2022/12/09 18:39:52;;;;;;;69.50;37.00;;;;;;;0.73;90.64;97453.88;422234;1296;108292;-39
2022/12/09 18:49:58;;;;;;;64.30;36.80;;;;;;;0.65;90.88;97450.89;422111;1287;96639;-40
2022/12/09 19:00:09;;;;;;;68.80;41.00;;;;;;;0.65;90.81;97449.36;421964;1297;111023;-39
2022/12/09 19:10:17;;;;;;;71.40;40.20;;;;;;;0.66;91.09;97452.68;421939;1288;108804;-39
2022/12/09 19:20:26;;;;;;;85.80;44.90;;;;;;;0.62;91.26;97454.56;421764;1301;97892;-40
2022/12/09 19:30:33;;;;;;;66.50;37.90;;;;;;;0.56;91.39;97444.06;421817;1295;112390;-39
2022/12/09 19:40:44;;;;;;;60.40;36.70;;;;;;;0.57;91.31;97430.19;421656;1288;106968;-40
2022/12/09 19:50:50;;;;;;;54.80;32.40;;;;;;;0.54;91.55;97419.33;421671;1286;97913;-40
2022/12/09 20:00:58;;;;;;;48.80;30.40;;;;;;;0.56;91.86;97417.45;422202;1289;109711;-40
2022/12/09 20:11:05;;;;;;;79.50;43.60;;;;;;;0.53;92.04;97422.53;422136;1298;97873;-38
2022/12/09 20:21:14;;;;;;;52.40;30.50;;;;;;;0.50;92.13;97413.80;422189;1296;97902;-40
2022/12/09 20:31:23;;;;;;;39.60;24.80;;;;;;;0.52;92.18;97400.00;422212;1294;107247;-39
2022/12/09 20:41:33;;;;;;;38.40;23.50;;;;;;;0.56;92.49;97389.20;422291;1295;97941;-39
2022/12/09 20:51:42;;;;;;;31.90;19.80;;;;;;;0.57;92.73;97385.68;422274;1286;110300;-39
2022/12/09 21:01:53;;;;;;;64.20;33.30;;;;;;;0.56;92.89;97370.55;422203;1287;108165;-39
2022/12/09 21:11:59;;;;;;;34.90;21.50;;;;;;;0.47;93.16;97372.37;422334;1276;97861;-40
2022/12/09 21:22:08;;;;;;;33.30;20.40;;;;;;;0.49;93.04;97371.46;422269;1296;108713;-39
2022/12/09 21:32:17;;;;;;;28.90;18.50;;;;;;;0.51;93.23;97365.63;422259;1296;108553;-39
2022/12/09 21:42:24;;;;;;;47.80;25.30;;;;;;;0.51;93.45;97363.51;422216;1296;97521;-41
2022/12/09 21:52:33;;;;;;;40.80;23.00;;;;;;;0.51;93.62;97355.59;422240;1285;107145;-39
2022/12/09 22:12:47;;;;;;;33.00;21.80;;;;;;;0.41;93.94;97369.38;422193;1296;109423;-39
2022/12/09 22:22:54;;;;;;;28.40;18.50;;;;;;;0.41;94.04;97370.87;422086;1292;107595;-41
2022/12/09 22:33:02;;;;;;;31.00;19.50;;;;;;;0.46;94.06;97369.64;422281;1298;98146;-40
2022/12/09 22:43:09;;;;;;;28.30;18.40;;;;;;;0.44;94.24;97367.70;422154;1289;108085;-39
2022/12/09 22:53:17;;;;;;;39.70;24.10;;;;;;;0.36;94.56;97369.65;422234;1298;97647;-39
2022/12/09 23:03:25;;;;;;;27.10;17.30;;;;;;;0.36;94.44;97366.54;422170;1296;97876;-40
2022/12/09 23:13:33;;;;;;;22.50;14.50;;;;;;;0.41;94.40;97372.19;422213;1294;107853;-40
2022/12/09 23:23:47;;;;;;;19.80;14.90;;;;;;;0.41;94.50;97365.70;422177;1292;97495;-40
2022/12/09 23:33:55;;;;;;;17.30;13.00;;;;;;;0.40;94.55;97364.91;422279;1296;108950;-40
2022/12/09 23:44:03;;;;;;;22.00;13.50;;;;;;;0.45;94.89;97372.67;422254;1296;108342;-39
2022/12/09 23:54:13;;;;;;;30.00;19.30;;;;;;;0.45;94.80;97373.16;422251;1296;97861;-40
